createdAt,value
2022-11-30T00:00:41.448Z,6.90
2022-11-30T00:03:08.710Z,6.70
2022-11-30T00:05:35.520Z,6.60
2022-11-30T00:08:02.530Z,6.60
2022-11-30T00:10:30.451Z,6.80
2022-11-30T00:12:57.455Z,6.80
2022-11-30T00:15:24.612Z,6.90
2022-11-30T00:17:57.226Z,6.90
2022-11-30T00:20:24.642Z,6.90
2022-11-30T00:22:51.463Z,6.80
2022-11-30T00:25:18.455Z,6.90
2022-11-30T00:27:45.452Z,6.90
2022-11-30T00:30:12.782Z,6.90
2022-11-30T00:32:39.576Z,7.10
2022-11-30T00:35:06.783Z,7.20
2022-11-30T00:37:35.435Z,7.00
2022-11-30T00:40:02.092Z,6.80
2022-11-30T00:42:31.212Z,6.90
2022-11-30T00:44:58.123Z,7.10
2022-11-30T00:47:25.133Z,7.10
2022-11-30T00:49:51.765Z,7.20
2022-11-30T00:52:18.444Z,7.30
2022-11-30T00:54:45.833Z,7.00
2022-11-30T00:57:12.963Z,7.00
2022-11-30T00:59:39.659Z,7.10
2022-11-30T01:02:06.679Z,7.00
2022-11-30T01:04:33.689Z,6.80
2022-11-30T01:07:00.775Z,6.70
2022-11-30T01:09:27.784Z,6.80
2022-11-30T01:11:54.813Z,7.00
2022-11-30T01:14:21.908Z,6.90
2022-11-30T01:16:54.773Z,6.90
2022-11-30T01:19:23.608Z,6.70
2022-11-30T01:21:50.256Z,6.60
2022-11-30T01:24:17.013Z,6.40
2022-11-30T01:26:44.084Z,6.60
2022-11-30T01:29:11.114Z,6.70
2022-11-30T01:31:37.826Z,6.80
2022-11-30T01:34:04.964Z,6.80
2022-11-30T01:36:32.379Z,6.80
2022-11-30T01:38:59.322Z,6.90
2022-11-30T01:41:30.643Z,6.60
2022-11-30T01:44:20.090Z,6.60
2022-11-30T01:46:54.735Z,6.50
2022-11-30T01:49:34.740Z,6.50
2022-11-30T01:52:05.923Z,6.60
2022-11-30T01:54:38.746Z,6.30
2022-11-30T01:57:19.925Z,6.30
2022-11-30T01:59:48.355Z,6.40
2022-11-30T02:02:15.674Z,6.30
2022-11-30T02:04:42.949Z,6.50
2022-11-30T02:07:10.992Z,6.70
2022-11-30T02:09:44.121Z,6.90
2022-11-30T02:12:30.591Z,7.20
2022-11-30T02:15:00.292Z,6.90
2022-11-30T02:18:07.546Z,6.70
2022-11-30T02:21:06.301Z,6.50
2022-11-30T02:23:54.900Z,6.50
2022-11-30T02:26:56.389Z,6.60
2022-11-30T02:29:36.708Z,6.70
2022-11-30T02:32:22.144Z,6.80
2022-11-30T02:34:50.417Z,7.00
2022-11-30T02:37:19.179Z,6.80
2022-11-30T02:39:46.249Z,6.60
2022-11-30T02:42:14.711Z,6.50
2022-11-30T02:44:45.403Z,6.50
2022-11-30T02:47:32.769Z,6.40
2022-11-30T02:50:04.436Z,6.50
2022-11-30T02:52:32.528Z,6.70
2022-11-30T02:55:06.317Z,6.70
2022-11-30T02:57:33.639Z,6.70
2022-11-30T03:00:02.635Z,6.90
2022-11-30T03:02:30.517Z,7.00
2022-11-30T03:04:57.464Z,6.90
2022-11-30T03:07:24.289Z,6.90
2022-11-30T03:09:51.265Z,6.70
2022-11-30T03:12:18.295Z,6.60
2022-11-30T03:14:45.635Z,6.70
2022-11-30T03:17:12.825Z,6.80
2022-11-30T03:19:39.769Z,6.80
2022-11-30T03:22:06.813Z,6.90
2022-11-30T03:24:33.989Z,7.00
2022-11-30T03:27:01.091Z,7.30
2022-11-30T03:29:27.753Z,7.20
2022-11-30T03:31:54.759Z,7.30
2022-11-30T03:34:22.594Z,7.40
2022-11-30T03:36:49.488Z,7.20
2022-11-30T03:39:16.160Z,7.30
2022-11-30T03:41:43.318Z,7.30
2022-11-30T03:44:10.687Z,7.30
2022-11-30T03:46:37.822Z,7.20
2022-11-30T03:49:04.755Z,7.10
2022-11-30T03:51:31.901Z,6.90
2022-11-30T03:53:58.930Z,6.90
2022-11-30T03:56:25.934Z,7.00
2022-11-30T03:58:53.088Z,7.00
2022-11-30T04:01:23.401Z,6.90
2022-11-30T04:03:51.729Z,7.10
2022-11-30T04:06:19.375Z,7.10
2022-11-30T04:08:46.749Z,7.10
2022-11-30T04:11:13.994Z,6.80
2022-11-30T04:13:41.745Z,6.80
2022-11-30T04:16:09.121Z,6.80
2022-11-30T04:18:37.513Z,6.90
2022-11-30T04:21:06.596Z,6.90
2022-11-30T04:23:36.275Z,6.90
2022-11-30T04:26:08.607Z,7.00
2022-11-30T04:28:36.087Z,7.10
2022-11-30T04:31:03.177Z,7.10
2022-11-30T04:33:30.225Z,7.10
2022-11-30T04:36:00.224Z,7.10
2022-11-30T04:38:27.346Z,7.00
2022-11-30T04:40:54.739Z,7.00
2022-11-30T04:43:22.055Z,6.90
2022-11-30T04:45:49.366Z,6.70
2022-11-30T04:48:17.244Z,6.70
2022-11-30T04:50:44.971Z,6.70
2022-11-30T04:53:11.971Z,6.80
2022-11-30T04:55:39.291Z,6.90
2022-11-30T04:58:07.024Z,7.00
2022-11-30T05:00:35.192Z,7.00
2022-11-30T05:03:02.400Z,7.00
2022-11-30T05:05:29.321Z,6.70
2022-11-30T05:07:58.043Z,6.60
2022-11-30T05:10:25.296Z,6.70
2022-11-30T05:12:52.400Z,6.70
2022-11-30T05:15:19.412Z,6.80
2022-11-30T05:17:46.381Z,7.00
2022-11-30T05:20:13.710Z,6.70
2022-11-30T05:22:40.479Z,6.70
2022-11-30T05:25:08.295Z,6.50
2022-11-30T05:27:35.410Z,6.50
2022-11-30T05:30:03.196Z,6.50
2022-11-30T05:32:29.882Z,6.60
2022-11-30T05:34:57.425Z,6.60
2022-11-30T05:37:24.392Z,6.60
2022-11-30T05:39:51.407Z,6.80
2022-11-30T05:42:18.498Z,6.70
2022-11-30T05:44:46.050Z,6.80
2022-11-30T05:47:13.242Z,7.00
2022-11-30T05:49:40.004Z,7.10
2022-11-30T05:52:07.226Z,7.10
2022-11-30T05:54:34.685Z,7.00
2022-11-30T05:57:01.888Z,6.60
2022-11-30T05:59:28.544Z,6.40
2022-11-30T06:01:55.473Z,6.40
2022-11-30T06:04:22.500Z,6.50
2022-11-30T06:06:49.610Z,6.50
2022-11-30T06:09:16.568Z,6.50
2022-11-30T06:11:43.489Z,6.40
2022-11-30T06:14:10.504Z,6.40
2022-11-30T06:16:39.668Z,6.20
2022-11-30T06:19:06.656Z,6.10
2022-11-30T06:21:33.795Z,5.80
2022-11-30T06:24:00.940Z,5.90
2022-11-30T06:26:27.817Z,6.00
2022-11-30T06:28:54.877Z,6.00
2022-11-30T06:31:21.959Z,6.00
2022-11-30T06:33:49.278Z,6.20
2022-11-30T06:36:23.878Z,6.40
2022-11-30T06:38:51.628Z,6.30
2022-11-30T06:41:19.257Z,6.20
2022-11-30T06:43:46.365Z,6.00
2022-11-30T06:46:13.494Z,6.00
2022-11-30T06:48:40.500Z,5.90
2022-11-30T06:51:09.172Z,5.60
2022-11-30T06:53:36.758Z,5.40
2022-11-30T06:56:10.477Z,5.60
2022-11-30T06:58:41.096Z,5.80
2022-11-30T07:01:10.823Z,5.80
2022-11-30T07:03:38.363Z,6.00
2022-11-30T07:06:10.766Z,6.00
2022-11-30T07:08:38.627Z,5.90
2022-11-30T07:11:06.513Z,5.70
2022-11-30T07:13:34.865Z,5.40
2022-11-30T07:16:06.527Z,5.50
2022-11-30T07:18:34.143Z,5.80
2022-11-30T07:21:02.316Z,5.80
2022-11-30T07:23:54.049Z,5.80
2022-11-30T07:26:23.243Z,6.00
2022-11-30T07:28:54.498Z,6.10
2022-11-30T07:31:24.008Z,6.10
2022-11-30T07:33:51.644Z,6.10
2022-11-30T07:36:20.953Z,6.10
2022-11-30T07:38:48.175Z,6.20
2022-11-30T07:41:14.952Z,6.00
2022-11-30T07:43:42.109Z,6.00
2022-11-30T07:46:12.276Z,5.90
2022-11-30T07:48:39.360Z,6.00
2022-11-30T07:51:10.216Z,6.10
2022-11-30T07:53:37.024Z,5.80
2022-11-30T07:56:06.833Z,5.70
2022-11-30T07:58:33.948Z,5.50
2022-11-30T08:01:09.080Z,5.50
2022-11-30T08:03:37.705Z,5.60
2022-11-30T08:06:07.656Z,5.80
2022-11-30T08:08:41.161Z,5.70
2022-11-30T08:11:09.879Z,5.80
2022-11-30T08:13:36.991Z,5.80
2022-11-30T08:16:15.615Z,5.70
2022-11-30T08:18:43.038Z,5.60
2022-11-30T08:21:12.105Z,5.70
2022-11-30T08:23:54.015Z,5.80
2022-11-30T08:26:22.992Z,5.90
2022-11-30T08:28:51.129Z,6.00
2022-11-30T08:31:19.392Z,5.80
2022-11-30T08:33:46.964Z,5.80
2022-11-30T08:36:19.794Z,5.60
2022-11-30T08:38:47.718Z,5.60
2022-11-30T08:41:16.891Z,5.70
2022-11-30T08:43:43.951Z,5.70
2022-11-30T08:46:42.431Z,5.80
2022-11-30T08:49:20.882Z,6.00
2022-11-30T08:52:15.877Z,6.00
2022-11-30T08:54:36.326Z,6.00
2022-11-30T08:57:03.216Z,5.90
2022-11-30T08:59:31.752Z,5.90
2022-11-30T09:01:58.868Z,6.00
2022-11-30T09:04:25.977Z,5.90
2022-11-30T09:06:58.592Z,5.90
2022-11-30T09:09:25.835Z,6.00
2022-11-30T09:11:52.823Z,5.90
2022-11-30T09:14:19.817Z,6.00
2022-11-30T09:16:46.886Z,6.10
2022-11-30T09:19:13.959Z,6.20
2022-11-30T09:21:40.902Z,6.20
2022-11-30T09:24:08.076Z,6.30
2022-11-30T09:26:35.017Z,6.40
2022-11-30T09:29:02.083Z,6.50
2022-11-30T09:31:29.144Z,6.50
2022-11-30T09:33:58.029Z,6.50
2022-11-30T09:36:29.933Z,6.20
2022-11-30T09:38:57.453Z,6.20
2022-11-30T09:41:45.724Z,6.50
2022-11-30T09:44:31.483Z,6.60
2022-11-30T09:47:02.715Z,6.90
2022-11-30T09:49:39.122Z,6.90
2022-11-30T09:52:26.404Z,6.90
2022-11-30T09:54:54.456Z,7.10
2022-11-30T09:57:26.952Z,7.20
2022-11-30T10:00:02.856Z,7.30
2022-11-30T10:02:33.824Z,7.20
2022-11-30T10:05:01.624Z,7.00
2022-11-30T10:08:10.236Z,7.10
2022-11-30T10:10:56.092Z,7.30
2022-11-30T10:13:27.924Z,7.30
2022-11-30T10:16:03.297Z,7.30
2022-11-30T10:18:54.703Z,7.30
2022-11-30T10:21:40.432Z,7.00
2022-11-30T10:24:33.748Z,7.00
2022-11-30T10:27:39.312Z,6.90
2022-11-30T10:30:16.029Z,7.20
2022-11-30T10:32:47.540Z,7.10
2022-11-30T10:35:37.120Z,7.00
2022-11-30T10:38:31.814Z,7.10
2022-11-30T10:41:16.008Z,7.30
2022-11-30T10:43:55.202Z,7.40
2022-11-30T10:46:29.038Z,7.40
2022-11-30T10:49:06.582Z,7.20
2022-11-30T10:51:37.647Z,6.80
2022-11-30T10:54:16.314Z,7.00
2022-11-30T10:56:43.133Z,6.90
2022-11-30T10:59:18.499Z,7.20
2022-11-30T11:01:45.576Z,7.50
2022-11-30T11:04:29.939Z,7.80
2022-11-30T11:06:59.351Z,7.80
2022-11-30T11:09:47.004Z,7.90
2022-11-30T11:12:27.558Z,7.90
2022-11-30T11:15:30.490Z,7.90
2022-11-30T11:18:22.703Z,7.90
2022-11-30T11:21:04.392Z,7.90
2022-11-30T11:23:39.629Z,7.80
2022-11-30T11:26:14.857Z,7.70
2022-11-30T11:28:45.880Z,7.80
2022-11-30T11:31:34.268Z,7.80
2022-11-30T11:34:01.548Z,7.80
2022-11-30T11:36:31.287Z,7.60
2022-11-30T11:38:59.179Z,7.50
2022-11-30T11:41:33.863Z,7.20
2022-11-30T11:44:09.748Z,7.30
2022-11-30T11:46:58.154Z,7.60
2022-11-30T11:49:31.684Z,7.80
2022-11-30T11:52:21.290Z,7.70
2022-11-30T11:54:56.836Z,7.60
2022-11-30T11:57:41.802Z,7.50
2022-11-30T12:00:21.000Z,7.60
2022-11-30T12:03:25.285Z,7.70
2022-11-30T12:05:58.417Z,7.50
2022-11-30T12:08:33.480Z,7.40
2022-11-30T12:11:17.716Z,7.60
2022-11-30T12:13:46.756Z,7.70
2022-11-30T12:16:29.934Z,7.80
2022-11-30T12:19:03.587Z,7.80
2022-11-30T12:21:36.703Z,7.70
2022-11-30T12:24:17.802Z,7.80
2022-11-30T12:26:49.399Z,7.70
2022-11-30T12:29:54.053Z,7.80
2022-11-30T12:32:27.429Z,7.90
2022-11-30T12:35:17.916Z,7.90
2022-11-30T12:37:50.734Z,7.80
2022-11-30T12:40:33.354Z,7.60
2022-11-30T12:43:22.714Z,7.90
2022-11-30T12:45:54.473Z,8.20
2022-11-30T12:48:40.270Z,8.40
2022-11-30T12:51:15.660Z,7.70
2022-11-30T12:53:49.413Z,7.70
2022-11-30T12:56:16.419Z,7.90
2022-11-30T12:59:02.592Z,8.10
2022-11-30T13:01:37.366Z,8.10
2022-11-30T13:04:14.432Z,8.20
2022-11-30T13:06:47.661Z,8.30
2022-11-30T13:09:32.132Z,8.40
2022-11-30T13:12:15.555Z,8.10
2022-11-30T13:14:43.439Z,8.00
2022-11-30T13:17:19.318Z,8.00
2022-11-30T13:20:14.325Z,8.00
2022-11-30T13:22:53.469Z,8.30
2022-11-30T13:26:06.825Z,8.60
2022-11-30T13:28:32.180Z,8.70
2022-11-30T13:31:02.207Z,8.50
2022-11-30T13:33:35.068Z,8.70
2022-11-30T13:36:07.462Z,8.70
2022-11-30T13:38:37.591Z,8.70
2022-11-30T13:41:08.322Z,8.60
2022-11-30T13:43:55.323Z,8.60
2022-11-30T13:46:23.975Z,8.50
2022-11-30T13:49:17.320Z,8.30
2022-11-30T13:51:44.246Z,8.30
2022-11-30T13:54:50.496Z,8.30
2022-11-30T13:57:29.423Z,8.50
2022-11-30T14:00:01.048Z,8.70
2022-11-30T14:02:34.484Z,8.80
2022-11-30T14:05:19.140Z,8.70
2022-11-30T14:07:50.116Z,8.50
2022-11-30T14:10:34.703Z,8.30
2022-11-30T14:13:10.802Z,8.20
2022-11-30T14:15:41.669Z,8.20
2022-11-30T14:18:08.390Z,8.20
2022-11-30T14:21:01.628Z,8.20
2022-11-30T14:23:31.387Z,8.30
2022-11-30T14:26:07.685Z,8.30
2022-11-30T14:29:02.189Z,8.30
2022-11-30T14:31:34.333Z,8.30
2022-11-30T14:34:16.634Z,8.20
2022-11-30T14:36:56.391Z,8.00
2022-11-30T14:39:25.937Z,7.90
2022-11-30T14:41:53.556Z,7.80
2022-11-30T14:44:20.647Z,7.80
2022-11-30T14:46:47.625Z,7.80
2022-11-30T14:49:24.214Z,7.90
2022-11-30T14:52:04.575Z,7.80
2022-11-30T14:54:37.704Z,7.60
2022-11-30T14:57:36.324Z,7.60
2022-11-30T15:00:05.824Z,7.50
2022-11-30T15:02:38.652Z,7.30
2022-11-30T15:05:08.692Z,7.30
2022-11-30T15:07:36.919Z,7.30
2022-11-30T15:10:14.519Z,7.40
2022-11-30T15:12:44.681Z,7.30
2022-11-30T15:15:17.045Z,7.40
2022-11-30T15:17:59.080Z,7.40
2022-11-30T15:20:27.868Z,7.40
2022-11-30T15:22:57.477Z,7.40
2022-11-30T15:25:30.145Z,7.40
2022-11-30T15:27:58.469Z,7.50
2022-11-30T15:30:25.263Z,7.50
2022-11-30T15:32:52.834Z,7.30
2022-11-30T15:35:30.769Z,7.00
2022-11-30T15:38:10.753Z,6.90
2022-11-30T15:40:37.791Z,7.10
2022-11-30T15:43:04.813Z,7.00
2022-11-30T15:45:35.279Z,7.00
2022-11-30T15:48:03.788Z,7.10
2022-11-30T15:50:37.595Z,7.20
2022-11-30T15:53:50.127Z,7.30
2022-11-30T15:56:25.786Z,7.40
2022-11-30T15:59:22.169Z,7.30
2022-11-30T16:02:08.893Z,7.20
2022-11-30T16:04:57.671Z,7.20
2022-11-30T16:07:35.679Z,7.20
2022-11-30T16:10:13.191Z,7.10
2022-11-30T16:12:41.276Z,7.20
2022-11-30T16:15:26.650Z,7.40
2022-11-30T16:17:57.056Z,7.30
2022-11-30T16:20:24.670Z,7.20
2022-11-30T16:22:51.859Z,7.30
2022-11-30T16:25:24.823Z,7.30
2022-11-30T16:27:52.531Z,7.40
2022-11-30T16:30:23.732Z,7.30
2022-11-30T16:32:50.909Z,7.30
2022-11-30T16:35:22.475Z,7.20
2022-11-30T16:37:50.483Z,7.20
2022-11-30T16:40:18.353Z,7.30
2022-11-30T16:42:45.278Z,7.30
2022-11-30T16:45:35.933Z,7.30
2022-11-30T16:48:03.076Z,7.40
2022-11-30T16:50:32.380Z,7.40
2022-11-30T16:52:59.475Z,7.30
2022-11-30T16:55:31.278Z,6.80
2022-11-30T16:57:58.616Z,6.70
2022-11-30T17:00:25.347Z,6.80
2022-11-30T17:02:56.934Z,6.80
2022-11-30T17:05:25.733Z,6.70
2022-11-30T17:07:52.802Z,6.90
2022-11-30T17:10:20.246Z,7.10
2022-11-30T17:12:47.357Z,7.30
2022-11-30T17:15:20.781Z,7.30
2022-11-30T17:17:47.983Z,7.20
2022-11-30T17:20:16.972Z,7.30
2022-11-30T17:22:44.621Z,7.50
2022-11-30T17:25:18.970Z,7.40
2022-11-30T17:27:45.895Z,7.50
2022-11-30T17:30:14.243Z,7.50
2022-11-30T17:32:41.056Z,7.50
2022-11-30T17:35:08.881Z,7.50
2022-11-30T17:37:36.184Z,7.50
2022-11-30T17:40:04.126Z,7.50
2022-11-30T17:42:31.151Z,7.60
2022-11-30T17:44:57.916Z,7.50
2022-11-30T17:47:24.820Z,7.50
2022-11-30T17:49:51.765Z,7.60
2022-11-30T17:52:18.711Z,7.60
2022-11-30T17:54:46.065Z,7.60
2022-11-30T17:57:13.233Z,7.40
2022-11-30T17:59:40.230Z,7.50
2022-11-30T18:02:09.527Z,7.60
2022-11-30T18:04:36.369Z,7.50
2022-11-30T18:07:03.106Z,7.50
2022-11-30T18:09:35.458Z,7.50
2022-11-30T18:12:06.244Z,7.50
2022-11-30T18:14:33.192Z,7.50
2022-11-30T18:17:01.100Z,7.60
2022-11-30T18:19:28.912Z,7.60
2022-11-30T18:21:56.091Z,7.40
2022-11-30T18:24:25.538Z,7.50
2022-11-30T18:26:52.741Z,7.30
2022-11-30T18:29:19.719Z,7.10
2022-11-30T18:31:48.404Z,7.10
2022-11-30T18:34:15.518Z,7.30
2022-11-30T18:36:42.686Z,7.40
2022-11-30T18:39:09.755Z,7.30
2022-11-30T18:41:36.626Z,7.40
2022-11-30T18:44:03.865Z,7.40
2022-11-30T18:46:30.918Z,7.30
2022-11-30T18:48:59.416Z,7.50
2022-11-30T18:51:27.991Z,7.60
2022-11-30T18:53:59.977Z,7.60
2022-11-30T18:56:29.926Z,7.50
2022-11-30T18:58:58.800Z,7.50
2022-11-30T19:01:26.368Z,7.50
2022-11-30T19:04:02.084Z,7.50
2022-11-30T19:06:32.523Z,7.70
2022-11-30T19:09:05.302Z,7.60
2022-11-30T19:11:33.859Z,7.40
2022-11-30T19:14:01.839Z,7.10
2022-11-30T19:16:34.343Z,6.90
2022-11-30T19:19:05.126Z,6.80
2022-11-30T19:21:32.051Z,7.00
2022-11-30T19:23:59.644Z,6.50
2022-11-30T19:26:28.408Z,6.60
2022-11-30T19:28:57.487Z,6.80
2022-11-30T19:31:25.800Z,6.60
2022-11-30T19:33:54.253Z,6.40
2022-11-30T19:36:27.177Z,6.40
2022-11-30T19:38:54.366Z,6.60
2022-11-30T19:41:22.136Z,6.80
2022-11-30T19:44:01.064Z,6.80
2022-11-30T19:46:31.530Z,6.70
2022-11-30T19:49:01.351Z,6.50
2022-11-30T19:51:29.108Z,6.40
2022-11-30T19:53:57.420Z,6.50
2022-11-30T19:56:26.772Z,6.60
2022-11-30T19:58:53.651Z,6.60
2022-11-30T20:01:23.138Z,6.50
2022-11-30T20:03:54.948Z,6.60
2022-11-30T20:06:25.639Z,6.60
2022-11-30T20:08:53.729Z,6.70
2022-11-30T20:11:20.713Z,6.50
2022-11-30T20:13:47.987Z,6.50
2022-11-30T20:16:16.936Z,6.50
2022-11-30T20:18:46.461Z,6.40
2022-11-30T20:21:16.834Z,6.20
2022-11-30T20:23:45.058Z,6.20
2022-11-30T20:26:16.100Z,6.30
2022-11-30T20:28:43.542Z,6.40
2022-11-30T20:31:11.820Z,6.30
2022-11-30T20:33:39.377Z,6.30
2022-11-30T20:36:08.157Z,6.20
2022-11-30T20:38:36.200Z,6.30
2022-11-30T20:41:03.572Z,6.40
2022-11-30T20:43:30.431Z,6.40
2022-11-30T20:45:57.466Z,6.50
2022-11-30T20:48:24.267Z,6.40
2022-11-30T20:51:13.997Z,6.30
2022-11-30T20:53:38.050Z,6.40
2022-11-30T20:56:05.283Z,6.30
2022-11-30T20:58:33.584Z,6.20
2022-11-30T21:01:00.868Z,6.00
2022-11-30T21:03:28.424Z,5.90
2022-11-30T21:05:55.174Z,5.80
2022-11-30T21:08:22.641Z,5.90
2022-11-30T21:10:49.619Z,5.80
2022-11-30T21:13:16.649Z,5.70
2022-11-30T21:15:43.737Z,5.70
2022-11-30T21:18:11.585Z,5.80
2022-11-30T21:20:38.625Z,6.00
2022-11-30T21:23:05.648Z,6.10
2022-11-30T21:25:35.122Z,6.20
2022-11-30T21:28:01.933Z,5.90
2022-11-30T21:30:28.573Z,5.70
2022-11-30T21:32:55.518Z,5.70
2022-11-30T21:35:22.823Z,5.70
2022-11-30T21:37:49.565Z,5.80
2022-11-30T21:40:17.499Z,5.80
2022-11-30T21:42:44.491Z,5.80
2022-11-30T21:45:12.436Z,5.70
2022-11-30T21:47:39.472Z,5.70
2022-11-30T21:50:06.946Z,5.80
2022-11-30T21:52:35.876Z,5.80
2022-11-30T21:55:02.715Z,5.80
2022-11-30T21:57:30.469Z,5.70
2022-11-30T21:59:57.484Z,5.70
2022-11-30T22:02:24.225Z,5.80
2022-11-30T22:04:51.274Z,5.70
2022-11-30T22:07:31.522Z,5.70
2022-11-30T22:09:58.831Z,5.70
2022-11-30T22:12:25.901Z,5.80
2022-11-30T22:14:53.014Z,5.90
2022-11-30T22:17:20.768Z,5.90
2022-11-30T22:19:47.763Z,5.90
2022-11-30T22:22:14.897Z,6.00
2022-11-30T22:24:42.307Z,5.90
2022-11-30T22:27:08.980Z,5.90
2022-11-30T22:29:36.056Z,5.80
2022-11-30T22:32:03.456Z,5.70
2022-11-30T22:34:30.871Z,5.70
2022-11-30T22:36:57.675Z,5.70
2022-11-30T22:39:24.620Z,5.60
2022-11-30T22:41:55.538Z,5.60
2022-11-30T22:44:23.248Z,5.60
2022-11-30T22:46:50.364Z,5.40
2022-11-30T22:49:21.244Z,5.40
2022-11-30T22:51:49.325Z,5.50
2022-11-30T22:54:16.630Z,5.50
2022-11-30T22:56:44.159Z,5.60
2022-11-30T22:59:12.538Z,5.60
2022-11-30T23:01:43.225Z,5.50
2022-11-30T23:04:13.171Z,5.50
2022-11-30T23:06:42.727Z,5.50
2022-11-30T23:09:13.630Z,5.60
2022-11-30T23:11:42.188Z,5.30
2022-11-30T23:14:09.787Z,5.30
2022-11-30T23:16:37.030Z,5.40
2022-11-30T23:19:05.147Z,5.30
2022-11-30T23:21:41.355Z,5.20
2022-11-30T23:24:12.069Z,5.20
2022-11-30T23:26:39.432Z,5.20
2022-11-30T23:29:10.397Z,5.10
2022-11-30T23:31:38.800Z,5.20
2022-11-30T23:34:08.346Z,5.30
2022-11-30T23:36:36.161Z,5.50
2022-11-30T23:39:12.264Z,5.70
2022-11-30T23:41:39.751Z,5.70
2022-11-30T23:44:07.290Z,5.50
2022-11-30T23:46:35.026Z,5.40
2022-11-30T23:49:02.122Z,5.00
2022-11-30T23:51:28.850Z,5.20
2022-11-30T23:53:55.941Z,5.00
2022-11-30T23:56:24.050Z,4.60
2022-11-30T23:58:51.218Z,4.50
